KHFD/HFD METAR and TAF weather

Enter ICAO airport designator
Station Type Date Time Source
KHFD METAR 2024/04/18 07:53 UTC NOAA

KHFD 180753Z AUTO 07003KT 5SM -RA BR OVC012 07/06 A3007 RMK AO2 RAE13B42 SLP182 P0002 T00720056


Station Type Date Time Source
KHFD Decoded METAR 2024/04/18 07:53 UTC NOAA

HARTFORD-BRAINARD AIRPORT, CT, United States (KHFD) 41-44N 072-39W 4M
Apr 18, 2024 - 03:53 AM EDT / 2024.04.18 0753 UTC
Wind: from the ENE (070 degrees) at 3 MPH (3 KT):0
Visibility: 5 mile(s):0
Sky conditions: overcast
Weather: light rain; mist
Precipitation last hour: 0.02 inches
Temperature: 45.0 F (7.2 C)
Dew Point: 42.1 F (5.6 C)
Relative Humidity: 89%
Pressure (altimeter): 30.07 in. Hg (1018 hPa)
ob: KHFD 180753Z AUTO 07003KT 5SM -RA BR OVC012 07/06 A3007 RMK AO2 RAE13B42 SLP182 P0002 T00720056
cycle: 8

Station Type Date Time Source
KHFD TAF UTC NOAA

Error!

Example: see airport list